sensor_id;sensor_type;location;lat;lon;timestamp;pressure;altitude;pressure_sealevel;temperature;humidity
11712;BME280;5912;51.034;6.984;2023-05-23T00:02:04;56318.25;;;-142.13;70.67
11712;BME280;5912;51.034;6.984;2023-05-23T00:04:33;56340.31;;;-142.13;70.53
11712;BME280;5912;51.034;6.984;2023-05-23T00:07:00;56322.28;;;-142.13;70.64
11712;BME280;5912;51.034;6.984;2023-05-23T00:09:25;56306.25;;;-142.13;70.36
11712;BME280;5912;51.034;6.984;2023-05-23T00:11:51;56328.28;;;-142.13;70.60
11712;BME280;5912;51.034;6.984;2023-05-23T00:14:16;56322.28;;;-142.13;70.85
11712;BME280;5912;51.034;6.984;2023-05-23T00:16:43;56342.31;;;-142.13;70.87
11712;BME280;5912;51.034;6.984;2023-05-23T00:19:10;56340.31;;;-142.13;70.97
11712;BME280;5912;51.034;6.984;2023-05-23T00:21:36;56340.31;;;-142.13;71.49
11712;BME280;5912;51.034;6.984;2023-05-23T00:24:02;56558.66;;;-142.13;71.61
11712;BME280;5912;51.034;6.984;2023-05-23T00:26:29;56308.25;;;-142.13;72.06
11712;BME280;5912;51.034;6.984;2023-05-23T00:28:54;56296.22;;;-142.13;72.42
11712;BME280;5912;51.034;6.984;2023-05-23T00:31:20;56318.25;;;-142.13;72.45
11712;BME280;5912;51.034;6.984;2023-05-23T00:33:46;56344.31;;;-142.13;72.31
11712;BME280;5912;51.034;6.984;2023-05-23T00:36:11;56326.28;;;-142.13;72.51
11712;BME280;5912;51.034;6.984;2023-05-23T00:38:37;56338.31;;;-142.13;72.71
11712;BME280;5912;51.034;6.984;2023-05-23T00:41:04;56356.31;;;-142.13;72.71
11712;BME280;5912;51.034;6.984;2023-05-23T00:43:29;56298.22;;;-142.13;72.79
11712;BME280;5912;51.034;6.984;2023-05-23T00:45:56;56338.31;;;-142.13;72.77
11712;BME280;5912;51.034;6.984;2023-05-23T00:48:22;56322.28;;;-142.13;72.59
11712;BME280;5912;51.034;6.984;2023-05-23T00:50:49;56348.31;;;-142.13;72.42
11712;BME280;5912;51.034;6.984;2023-05-23T00:53:14;56316.25;;;-142.13;71.95
11712;BME280;5912;51.034;6.984;2023-05-23T00:55:41;56348.31;;;-142.13;71.39
11712;BME280;5912;51.034;6.984;2023-05-23T00:58:07;56320.28;;;-142.13;71.36
11712;BME280;5912;51.034;6.984;2023-05-23T01:00:32;56334.28;;;-142.13;71.13
11712;BME280;5912;51.034;6.984;2023-05-23T01:02:59;56356.31;;;-142.13;70.97
11712;BME280;5912;51.034;6.984;2023-05-23T01:05:25;56300.25;;;-142.13;70.91
11712;BME280;5912;51.034;6.984;2023-05-23T01:07:51;56496.56;;;-142.13;70.72
11712;BME280;5912;51.034;6.984;2023-05-23T01:10:20;56348.31;;;-142.13;70.24
11712;BME280;5912;51.034;6.984;2023-05-23T01:16:08;56320.28;;;-142.13;69.64
11712;BME280;5912;51.034;6.984;2023-05-23T01:18:38;56294.22;;;-142.13;69.95
11712;BME280;5912;51.034;6.984;2023-05-23T01:21:10;56288.22;;;-142.13;70.04
11712;BME280;5912;51.034;6.984;2023-05-23T01:29:10;56308.25;;;-142.13;70.08
11712;BME280;5912;51.034;6.984;2023-05-23T01:31:42;56304.25;;;-142.13;69.85
11712;BME280;5912;51.034;6.984;2023-05-23T01:34:09;56308.25;;;-142.13;69.70
11712;BME280;5912;51.034;6.984;2023-05-23T01:36:39;56322.28;;;-142.13;69.68
11712;BME280;5912;51.034;6.984;2023-05-23T01:39:06;56296.22;;;-142.13;68.59
11712;BME280;5912;51.034;6.984;2023-05-23T01:41:32;56320.28;;;-142.13;67.42
11712;BME280;5912;51.034;6.984;2023-05-23T01:43:57;56308.25;;;-142.13;66.44
11712;BME280;5912;51.034;6.984;2023-05-23T01:46:23;56284.22;;;-142.13;66.25
11712;BME280;5912;51.034;6.984;2023-05-23T01:48:52;56284.22;;;-142.13;66.16
11712;BME280;5912;51.034;6.984;2023-05-23T01:51:22;56306.25;;;-142.13;65.79
11712;BME280;5912;51.034;6.984;2023-05-23T01:53:50;56296.22;;;-142.13;65.51
11712;BME280;5912;51.034;6.984;2023-05-23T01:56:15;56316.25;;;-142.13;65.19
11712;BME280;5912;51.034;6.984;2023-05-23T01:58:41;56310.25;;;-142.13;65.22
11712;BME280;5912;51.034;6.984;2023-05-23T02:01:07;56348.31;;;-142.13;65.34
11712;BME280;5912;51.034;6.984;2023-05-23T02:03:33;56320.28;;;-142.13;65.34
11712;BME280;5912;51.034;6.984;2023-05-23T02:05:58;56342.31;;;-142.13;65.13
11712;BME280;5912;51.034;6.984;2023-05-23T02:08:24;56304.25;;;-142.13;65.25
11712;BME280;5912;51.034;6.984;2023-05-23T02:10:49;56328.28;;;-142.13;65.21
11712;BME280;5912;51.034;6.984;2023-05-23T02:13:14;56362.34;;;-142.13;65.08
11712;BME280;5912;51.034;6.984;2023-05-23T02:15:40;56356.31;;;-142.13;65.25
11712;BME280;5912;51.034;6.984;2023-05-23T02:18:05;56322.28;;;-142.13;65.10
11712;BME280;5912;51.034;6.984;2023-05-23T02:20:30;56292.22;;;-142.13;65.18
11712;BME280;5912;51.034;6.984;2023-05-23T02:22:56;56318.25;;;-142.13;65.31
11712;BME280;5912;51.034;6.984;2023-05-23T02:25:21;56318.25;;;-142.13;65.29
11712;BME280;5912;51.034;6.984;2023-05-23T02:27:47;56300.25;;;-142.13;65.46
11712;BME280;5912;51.034;6.984;2023-05-23T02:30:12;56304.25;;;-142.13;65.30
11712;BME280;5912;51.034;6.984;2023-05-23T02:32:38;56324.28;;;-142.13;65.51
11712;BME280;5912;51.034;6.984;2023-05-23T02:35:03;56300.25;;;-142.13;65.78
11712;BME280;5912;51.034;6.984;2023-05-23T02:37:29;56316.25;;;-142.13;66.07
11712;BME280;5912;51.034;6.984;2023-05-23T02:39:55;56328.28;;;-142.13;66.14
11712;BME280;5912;51.034;6.984;2023-05-23T02:42:21;56314.25;;;-142.13;66.00
11712;BME280;5912;51.034;6.984;2023-05-23T02:44:46;56292.22;;;-142.13;66.14
11712;BME280;5912;51.034;6.984;2023-05-23T02:47:11;56316.25;;;-142.13;66.14
11712;BME280;5912;51.034;6.984;2023-05-23T02:49:37;56292.22;;;-142.13;66.10
11712;BME280;5912;51.034;6.984;2023-05-23T02:52:02;56320.28;;;-142.13;66.00
11712;BME280;5912;51.034;6.984;2023-05-23T02:54:28;56346.31;;;-142.13;66.14
11712;BME280;5912;51.034;6.984;2023-05-23T02:56:53;56304.25;;;-142.13;66.19
11712;BME280;5912;51.034;6.984;2023-05-23T02:59:20;56292.22;;;-142.13;66.36
11712;BME280;5912;51.034;6.984;2023-05-23T03:01:46;56310.25;;;-142.13;66.47
11712;BME280;5912;51.034;6.984;2023-05-23T03:04:11;56312.25;;;-142.13;66.32
11712;BME280;5912;51.034;6.984;2023-05-23T03:06:38;56340.31;;;-142.13;66.45
11712;BME280;5912;51.034;6.984;2023-05-23T03:09:14;56320.28;;;-142.13;66.28
11712;BME280;5912;51.034;6.984;2023-05-23T03:11:40;56298.22;;;-142.13;66.19
11712;BME280;5912;51.034;6.984;2023-05-23T03:14:06;56328.28;;;-142.13;66.23
11712;BME280;5912;51.034;6.984;2023-05-23T03:16:43;56344.31;;;-142.13;66.12
11712;BME280;5912;51.034;6.984;2023-05-23T03:19:09;56318.25;;;-142.13;65.93
11712;BME280;5912;51.034;6.984;2023-05-23T03:21:34;56300.25;;;-142.13;66.38
11712;BME280;5912;51.034;6.984;2023-05-23T03:24:00;56316.25;;;-142.13;66.61
11712;BME280;5912;51.034;6.984;2023-05-23T03:26:26;56316.25;;;-142.13;66.97
11712;BME280;5912;51.034;6.984;2023-05-23T03:28:51;56324.28;;;-142.13;67.25
11712;BME280;5912;51.034;6.984;2023-05-23T03:31:17;56332.28;;;-142.13;67.34
11712;BME280;5912;51.034;6.984;2023-05-23T03:33:42;56316.25;;;-142.13;67.65
11712;BME280;5912;51.034;6.984;2023-05-23T03:36:08;56342.31;;;-142.13;68.26
11712;BME280;5912;51.034;6.984;2023-05-23T03:38:33;56302.25;;;-142.13;68.70
11712;BME280;5912;51.034;6.984;2023-05-23T03:40:59;56354.31;;;-142.13;69.16
11712;BME280;5912;51.034;6.984;2023-05-23T03:43:24;56320.28;;;-142.13;69.48
11712;BME280;5912;51.034;6.984;2023-05-23T03:45:50;56340.31;;;-142.13;69.83
11712;BME280;5912;51.034;6.984;2023-05-23T03:48:15;56344.31;;;-142.13;69.43
11712;BME280;5912;51.034;6.984;2023-05-23T03:50:40;56328.28;;;-142.13;70.12
11712;BME280;5912;51.034;6.984;2023-05-23T03:53:06;56342.31;;;-142.13;69.80
11712;BME280;5912;51.034;6.984;2023-05-23T03:55:32;56338.31;;;-142.13;70.27
11712;BME280;5912;51.034;6.984;2023-05-23T03:57:58;56346.31;;;-142.13;70.13
11712;BME280;5912;51.034;6.984;2023-05-23T04:00:23;56330.28;;;-142.13;69.97
11712;BME280;5912;51.034;6.984;2023-05-23T04:02:49;56334.28;;;-142.13;70.11
11712;BME280;5912;51.034;6.984;2023-05-23T04:05:16;56340.31;;;-142.13;69.92
11712;BME280;5912;51.034;6.984;2023-05-23T04:07:42;56346.31;;;-142.13;69.38
11712;BME280;5912;51.034;6.984;2023-05-23T04:10:08;56332.28;;;-142.13;69.14
11712;BME280;5912;51.034;6.984;2023-05-23T04:12:34;56346.31;;;-142.13;69.05
11712;BME280;5912;51.034;6.984;2023-05-23T04:14:59;56368.34;;;-142.13;69.48
11712;BME280;5912;51.034;6.984;2023-05-23T04:17:25;56336.28;;;-142.13;69.03
11712;BME280;5912;51.034;6.984;2023-05-23T04:19:55;56338.31;;;-142.13;68.40
11712;BME280;5912;51.034;6.984;2023-05-23T04:22:20;56340.31;;;-142.13;68.52
11712;BME280;5912;51.034;6.984;2023-05-23T04:24:46;56348.31;;;-142.13;68.54
11712;BME280;5912;51.034;6.984;2023-05-23T04:27:11;56320.28;;;-142.13;68.02
11712;BME280;5912;51.034;6.984;2023-05-23T04:29:37;56328.28;;;-142.13;67.55
11712;BME280;5912;51.034;6.984;2023-05-23T04:32:04;56344.31;;;-142.13;67.46
11712;BME280;5912;51.034;6.984;2023-05-23T04:34:30;56314.25;;;-142.13;67.52
11712;BME280;5912;51.034;6.984;2023-05-23T04:36:58;56356.31;;;-142.13;67.58
11712;BME280;5912;51.034;6.984;2023-05-23T04:39:26;56312.25;;;-142.13;67.10
11712;BME280;5912;51.034;6.984;2023-05-23T04:41:51;56324.28;;;-142.13;67.34
11712;BME280;5912;51.034;6.984;2023-05-23T04:44:18;56296.22;;;-142.13;67.31
11712;BME280;5912;51.034;6.984;2023-05-23T04:46:44;56304.25;;;-142.13;67.73
11712;BME280;5912;51.034;6.984;2023-05-23T04:49:10;56344.31;;;-142.13;67.86
11712;BME280;5912;51.034;6.984;2023-05-23T04:51:37;56326.28;;;-142.13;68.21
11712;BME280;5912;51.034;6.984;2023-05-23T04:54:18;56320.28;;;-142.13;68.35
11712;BME280;5912;51.034;6.984;2023-05-23T04:56:43;56332.28;;;-142.13;68.86
11712;BME280;5912;51.034;6.984;2023-05-23T04:59:09;56350.31;;;-142.13;69.13
11712;BME280;5912;51.034;6.984;2023-05-23T05:01:35;56346.31;;;-142.13;69.17
11712;BME280;5912;51.034;6.984;2023-05-23T05:04:04;56356.31;;;-142.13;69.73
11712;BME280;5912;51.034;6.984;2023-05-23T05:06:30;56332.28;;;-142.13;69.76
11712;BME280;5912;51.034;6.984;2023-05-23T05:08:55;56302.25;;;-142.13;69.78
11712;BME280;5912;51.034;6.984;2023-05-23T05:11:21;56350.31;;;-142.13;69.64
11712;BME280;5912;51.034;6.984;2023-05-23T05:13:46;56356.31;;;-142.13;69.81
11712;BME280;5912;51.034;6.984;2023-05-23T05:16:12;56354.31;;;-142.13;69.78
11712;BME280;5912;51.034;6.984;2023-05-23T05:18:37;56344.31;;;-142.13;69.49
11712;BME280;5912;51.034;6.984;2023-05-23T05:21:03;56330.28;;;-142.13;69.51
11712;BME280;5912;51.034;6.984;2023-05-23T05:23:30;56326.28;;;-142.13;68.97
11712;BME280;5912;51.034;6.984;2023-05-23T05:25:55;56308.25;;;-142.13;68.92
11712;BME280;5912;51.034;6.984;2023-05-23T05:28:21;56308.25;;;-142.13;68.92
11712;BME280;5912;51.034;6.984;2023-05-23T05:30:47;56324.28;;;-142.13;68.71
11712;BME280;5912;51.034;6.984;2023-05-23T05:33:21;56362.34;;;-142.13;68.94
11712;BME280;5912;51.034;6.984;2023-05-23T05:35:52;56318.25;;;-142.13;68.90
11712;BME280;5912;51.034;6.984;2023-05-23T05:38:18;56300.25;;;-142.13;68.94
11712;BME280;5912;51.034;6.984;2023-05-23T05:40:44;56320.28;;;-142.13;68.92
11712;BME280;5912;51.034;6.984;2023-05-23T05:43:09;56334.28;;;-142.13;68.69
11712;BME280;5912;51.034;6.984;2023-05-23T05:45:35;56308.25;;;-142.13;68.46
11712;BME280;5912;51.034;6.984;2023-05-23T05:48:01;56348.31;;;-142.13;68.39
11712;BME280;5912;51.034;6.984;2023-05-23T05:50:27;56324.28;;;-142.13;68.70
11712;BME280;5912;51.034;6.984;2023-05-23T05:52:52;56302.25;;;-142.13;68.63
11712;BME280;5912;51.034;6.984;2023-05-23T05:55:18;56316.25;;;-142.13;68.71
11712;BME280;5912;51.034;6.984;2023-05-23T05:57:43;56328.28;;;-142.13;68.78
11712;BME280;5912;51.034;6.984;2023-05-23T06:00:11;56334.28;;;-142.13;68.61
11712;BME280;5912;51.034;6.984;2023-05-23T06:02:42;56340.31;;;-142.13;68.79
11712;BME280;5912;51.034;6.984;2023-05-23T06:05:08;56356.31;;;-142.13;68.67
11712;BME280;5912;51.034;6.984;2023-05-23T06:07:37;56332.28;;;-142.13;68.92
11712;BME280;5912;51.034;6.984;2023-05-23T06:10:02;56332.28;;;-142.13;69.15
11712;BME280;5912;51.034;6.984;2023-05-23T06:12:28;56340.31;;;-142.13;68.92
11712;BME280;5912;51.034;6.984;2023-05-23T06:14:53;56336.28;;;-142.13;68.98
11712;BME280;5912;51.034;6.984;2023-05-23T06:17:18;56358.34;;;-142.13;69.08
11712;BME280;5912;51.034;6.984;2023-05-23T06:19:44;56344.31;;;-142.13;68.57
11712;BME280;5912;51.034;6.984;2023-05-23T06:22:09;56344.31;;;-142.13;68.76
11712;BME280;5912;51.034;6.984;2023-05-23T06:24:34;56324.28;;;-142.13;68.75
11712;BME280;5912;51.034;6.984;2023-05-23T06:26:59;56330.28;;;-142.13;68.53
11712;BME280;5912;51.034;6.984;2023-05-23T06:29:25;56334.28;;;-142.13;68.88
11712;BME280;5912;51.034;6.984;2023-05-23T06:31:50;56332.28;;;-142.13;68.99
11712;BME280;5912;51.034;6.984;2023-05-23T06:34:16;56308.25;;;-142.13;68.56
11712;BME280;5912;51.034;6.984;2023-05-23T06:36:41;56340.31;;;-142.13;68.51
11712;BME280;5912;51.034;6.984;2023-05-23T06:39:07;56356.31;;;-142.13;68.77
11712;BME280;5912;51.034;6.984;2023-05-23T06:41:34;56336.28;;;-142.13;68.79
11712;BME280;5912;51.034;6.984;2023-05-23T06:44:00;56340.31;;;-142.13;67.99
11712;BME280;5912;51.034;6.984;2023-05-23T06:46:25;56296.22;;;-142.13;68.33
11712;BME280;5912;51.034;6.984;2023-05-23T06:48:50;56328.28;;;-142.13;68.22
11712;BME280;5912;51.034;6.984;2023-05-23T06:51:16;56326.28;;;-142.13;68.20
11712;BME280;5912;51.034;6.984;2023-05-23T06:53:41;56340.31;;;-142.13;67.69
11712;BME280;5912;51.034;6.984;2023-05-23T06:56:06;56326.28;;;-142.13;67.62
11712;BME280;5912;51.034;6.984;2023-05-23T06:58:32;56312.25;;;-142.13;66.78
11712;BME280;5912;51.034;6.984;2023-05-23T07:00:57;56276.19;;;-142.13;66.19
11712;BME280;5912;51.034;6.984;2023-05-23T07:03:22;56320.28;;;-142.13;65.82
11712;BME280;5912;51.034;6.984;2023-05-23T07:05:47;56318.25;;;-142.13;65.30
11712;BME280;5912;51.034;6.984;2023-05-23T07:08:13;56306.25;;;-142.13;65.05
11712;BME280;5912;51.034;6.984;2023-05-23T07:10:38;56316.25;;;-142.13;64.69
11712;BME280;5912;51.034;6.984;2023-05-23T07:13:05;56316.25;;;-142.13;63.06
11712;BME280;5912;51.034;6.984;2023-05-23T07:15:30;56284.22;;;-142.13;62.63
11712;BME280;5912;51.034;6.984;2023-05-23T07:17:56;56288.22;;;-142.13;61.83
11712;BME280;5912;51.034;6.984;2023-05-23T07:20:21;56290.22;;;-142.13;61.86
11712;BME280;5912;51.034;6.984;2023-05-23T07:22:46;56308.25;;;-142.13;61.76
11712;BME280;5912;51.034;6.984;2023-05-23T07:25:12;56312.25;;;-142.13;61.54
11712;BME280;5912;51.034;6.984;2023-05-23T07:27:37;56300.25;;;-142.13;62.17
11712;BME280;5912;51.034;6.984;2023-05-23T07:30:03;56310.25;;;-142.13;61.96
11712;BME280;5912;51.034;6.984;2023-05-23T07:32:29;56276.19;;;-142.13;62.15
11712;BME280;5912;51.034;6.984;2023-05-23T07:34:55;56308.25;;;-142.13;61.67
11712;BME280;5912;51.034;6.984;2023-05-23T07:37:20;56290.22;;;-142.13;61.36
11712;BME280;5912;51.034;6.984;2023-05-23T07:39:45;56286.22;;;-142.13;60.74
11712;BME280;5912;51.034;6.984;2023-05-23T07:42:10;56286.22;;;-142.13;60.91
11712;BME280;5912;51.034;6.984;2023-05-23T07:44:36;56298.22;;;-142.13;60.63
11712;BME280;5912;51.034;6.984;2023-05-23T07:47:02;56278.19;;;-142.13;60.75
11712;BME280;5912;51.034;6.984;2023-05-23T07:49:29;56272.19;;;-142.13;60.51
11712;BME280;5912;51.034;6.984;2023-05-23T07:51:54;56254.16;;;-142.13;60.12
11712;BME280;5912;51.034;6.984;2023-05-23T07:54:20;56276.19;;;-142.13;60.15
11712;BME280;5912;51.034;6.984;2023-05-23T07:56:45;56284.22;;;-142.13;59.91
11712;BME280;5912;51.034;6.984;2023-05-23T07:59:10;56282.22;;;-142.13;59.90
11712;BME280;5912;51.034;6.984;2023-05-23T08:01:36;56260.19;;;-142.13;59.56
11712;BME280;5912;51.034;6.984;2023-05-23T08:04:02;56282.22;;;-142.13;58.81
11712;BME280;5912;51.034;6.984;2023-05-23T08:06:27;56296.22;;;-142.13;59.20
11712;BME280;5912;51.034;6.984;2023-05-23T08:08:53;56304.25;;;-142.13;59.44
11712;BME280;5912;51.034;6.984;2023-05-23T08:11:18;56290.22;;;-142.13;59.97
11712;BME280;5912;51.034;6.984;2023-05-23T08:13:43;56316.25;;;-142.13;60.46
11712;BME280;5912;51.034;6.984;2023-05-23T08:16:09;56298.22;;;-142.13;60.91
11712;BME280;5912;51.034;6.984;2023-05-23T08:18:34;56292.22;;;-142.13;60.82
11712;BME280;5912;51.034;6.984;2023-05-23T08:21:00;56288.22;;;-142.13;60.94
11712;BME280;5912;51.034;6.984;2023-05-23T08:23:27;56296.22;;;-142.13;60.80
11712;BME280;5912;51.034;6.984;2023-05-23T08:25:53;56308.25;;;-142.13;60.86
11712;BME280;5912;51.034;6.984;2023-05-23T08:28:20;56298.22;;;-142.13;61.21
11712;BME280;5912;51.034;6.984;2023-05-23T08:30:45;56292.22;;;-142.13;61.34
11712;BME280;5912;51.034;6.984;2023-05-23T08:33:10;56324.28;;;-142.13;61.17
11712;BME280;5912;51.034;6.984;2023-05-23T08:35:36;56292.22;;;-142.13;61.53
11712;BME280;5912;51.034;6.984;2023-05-23T08:38:04;56304.25;;;-142.13;62.14
11712;BME280;5912;51.034;6.984;2023-05-23T08:40:30;56310.25;;;-142.13;61.63
11712;BME280;5912;51.034;6.984;2023-05-23T08:42:56;56284.22;;;-142.13;61.07
11712;BME280;5912;51.034;6.984;2023-05-23T08:45:22;56304.25;;;-142.13;60.96
11712;BME280;5912;51.034;6.984;2023-05-23T08:47:50;56316.25;;;-142.13;61.56
11712;BME280;5912;51.034;6.984;2023-05-23T08:50:16;56280.22;;;-142.13;60.63
11712;BME280;5912;51.034;6.984;2023-05-23T08:52:43;56296.22;;;-142.13;61.60
11712;BME280;5912;51.034;6.984;2023-05-23T08:55:12;56294.22;;;-142.13;61.31
11712;BME280;5912;51.034;6.984;2023-05-23T08:57:38;56324.28;;;-142.13;61.02
11712;BME280;5912;51.034;6.984;2023-05-23T09:00:08;56284.22;;;-142.13;60.42
11712;BME280;5912;51.034;6.984;2023-05-23T09:02:35;56284.22;;;-142.13;58.94
11712;BME280;5912;51.034;6.984;2023-05-23T09:05:01;56280.22;;;-142.13;58.89
11712;BME280;5912;51.034;6.984;2023-05-23T09:07:27;56294.22;;;-142.13;58.76
11712;BME280;5912;51.034;6.984;2023-05-23T09:09:53;56282.22;;;-142.13;58.82
11712;BME280;5912;51.034;6.984;2023-05-23T09:12:18;56274.19;;;-142.13;57.60
11712;BME280;5912;51.034;6.984;2023-05-23T09:14:46;56246.16;;;-142.13;56.72
11712;BME280;5912;51.034;6.984;2023-05-23T09:17:16;56284.22;;;-142.13;56.13
11712;BME280;5912;51.034;6.984;2023-05-23T09:19:42;56284.22;;;-142.13;56.04
11712;BME280;5912;51.034;6.984;2023-05-23T09:22:07;56280.22;;;-142.13;56.37
11712;BME280;5912;51.034;6.984;2023-05-23T09:24:34;56284.22;;;-142.13;56.23
11712;BME280;5912;51.034;6.984;2023-05-23T09:27:00;56286.22;;;-142.13;55.94
11712;BME280;5912;51.034;6.984;2023-05-23T09:29:26;56278.19;;;-142.13;56.53
11712;BME280;5912;51.034;6.984;2023-05-23T09:31:58;56252.16;;;-142.13;56.46
11712;BME280;5912;51.034;6.984;2023-05-23T09:34:24;56264.19;;;-142.13;56.37
11712;BME280;5912;51.034;6.984;2023-05-23T09:36:49;56276.19;;;-142.13;56.99
11712;BME280;5912;51.034;6.984;2023-05-23T09:39:15;56284.22;;;-142.13;56.76
11712;BME280;5912;51.034;6.984;2023-05-23T09:41:40;56286.22;;;-142.13;57.60
11712;BME280;5912;51.034;6.984;2023-05-23T09:44:09;56294.22;;;-142.13;57.07
11712;BME280;5912;51.034;6.984;2023-05-23T09:46:35;56294.22;;;-142.13;57.59
11712;BME280;5912;51.034;6.984;2023-05-23T09:49:05;56314.25;;;-142.13;56.63
11712;BME280;5912;51.034;6.984;2023-05-23T09:51:38;56306.25;;;-142.13;57.72
11712;BME280;5912;51.034;6.984;2023-05-23T09:54:04;56310.25;;;-142.13;58.20
11712;BME280;5912;51.034;6.984;2023-05-23T09:56:29;56308.25;;;-142.13;58.28
11712;BME280;5912;51.034;6.984;2023-05-23T09:58:56;56318.25;;;-142.13;57.68
11712;BME280;5912;51.034;6.984;2023-05-23T10:01:24;56322.28;;;-142.13;57.98
11712;BME280;5912;51.034;6.984;2023-05-23T10:03:51;56272.19;;;-142.13;57.01
11712;BME280;5912;51.034;6.984;2023-05-23T10:06:32;56298.22;;;-142.13;56.76
11712;BME280;5912;51.034;6.984;2023-05-23T10:09:04;56272.19;;;-142.13;56.80
11712;BME280;5912;51.034;6.984;2023-05-23T10:14:00;56282.22;;;-142.13;56.15
11712;BME280;5912;51.034;6.984;2023-05-23T10:16:33;56274.19;;;-142.13;54.64
11712;BME280;5912;51.034;6.984;2023-05-23T10:19:24;56256.16;;;-142.13;54.99
11712;BME280;5912;51.034;6.984;2023-05-23T10:22:00;56284.22;;;-142.13;54.51
11712;BME280;5912;51.034;6.984;2023-05-23T10:24:26;56282.22;;;-142.13;53.91
11712;BME280;5912;51.034;6.984;2023-05-23T10:26:52;56246.16;;;-142.13;52.66
11712;BME280;5912;51.034;6.984;2023-05-23T10:29:20;56220.13;;;-142.13;52.22
11712;BME280;5912;51.034;6.984;2023-05-23T10:31:46;56228.13;;;-142.13;50.32
11712;BME280;5912;51.034;6.984;2023-05-23T10:36:56;56240.16;;;-142.13;48.64
11712;BME280;5912;51.034;6.984;2023-05-23T10:42:26;56238.13;;;-142.13;49.30
11712;BME280;5912;51.034;6.984;2023-05-23T10:44:52;56232.13;;;-142.13;49.48
11712;BME280;5912;51.034;6.984;2023-05-23T10:47:27;56236.13;;;-142.13;49.84
11712;BME280;5912;51.034;6.984;2023-05-23T10:49:55;56260.19;;;-142.13;50.34
11712;BME280;5912;51.034;6.984;2023-05-23T10:52:22;56272.19;;;-142.13;50.08
11712;BME280;5912;51.034;6.984;2023-05-23T10:54:53;56282.22;;;-142.13;50.15
11712;BME280;5912;51.034;6.984;2023-05-23T10:57:20;56280.22;;;-142.13;51.01
11712;BME280;5912;51.034;6.984;2023-05-23T10:59:58;56274.19;;;-142.13;51.18
11712;BME280;5912;51.034;6.984;2023-05-23T11:02:27;56290.22;;;-142.13;51.43
11712;BME280;5912;51.034;6.984;2023-05-23T11:05:22;56260.19;;;-142.13;50.10
11712;BME280;5912;51.034;6.984;2023-05-23T11:08:08;56256.16;;;-142.13;50.36
11712;BME280;5912;51.034;6.984;2023-05-23T11:10:53;56250.16;;;-142.13;49.80
11712;BME280;5912;51.034;6.984;2023-05-23T11:13:22;56278.19;;;-142.13;50.00
11712;BME280;5912;51.034;6.984;2023-05-23T11:15:48;56278.19;;;-142.13;51.53
11712;BME280;5912;51.034;6.984;2023-05-23T11:18:25;56268.19;;;-142.13;52.06
11712;BME280;5912;51.034;6.984;2023-05-23T11:20:52;56288.22;;;-142.13;51.27
11712;BME280;5912;51.034;6.984;2023-05-23T11:23:18;56444.47;;;-142.13;51.32
11712;BME280;5912;51.034;6.984;2023-05-23T11:25:47;56298.22;;;-142.13;51.71
11712;BME280;5912;51.034;6.984;2023-05-23T11:28:13;56280.22;;;-142.13;52.39
11712;BME280;5912;51.034;6.984;2023-05-23T11:30:39;56282.22;;;-142.13;52.56
11712;BME280;5912;51.034;6.984;2023-05-23T11:33:12;56270.19;;;-142.13;52.29
11712;BME280;5912;51.034;6.984;2023-05-23T11:35:43;56292.22;;;-142.13;51.55
11712;BME280;5912;51.034;6.984;2023-05-23T11:38:09;56282.22;;;-142.13;49.99
11712;BME280;5912;51.034;6.984;2023-05-23T11:40:37;56252.16;;;-142.13;49.17
11712;BME280;5912;51.034;6.984;2023-05-23T11:43:05;56208.09;;;-142.13;46.94
11712;BME280;5912;51.034;6.984;2023-05-23T11:45:32;56226.13;;;-142.13;46.50
11712;BME280;5912;51.034;6.984;2023-05-23T11:47:58;56204.09;;;-142.13;43.28
11712;BME280;5912;51.034;6.984;2023-05-23T11:50:23;56178.03;;;-142.13;41.95
11712;BME280;5912;51.034;6.984;2023-05-23T11:52:49;56148.00;;;-142.13;42.02
11712;BME280;5912;51.034;6.984;2023-05-23T11:55:21;56150.00;;;-142.13;39.97
11712;BME280;5912;51.034;6.984;2023-05-23T11:57:47;56105.94;;;-142.13;38.19
11712;BME280;5912;51.034;6.984;2023-05-23T12:00:13;56111.94;;;-142.13;37.19
11712;BME280;5912;51.034;6.984;2023-05-23T12:02:39;56109.94;;;-142.13;36.88
11712;BME280;5912;51.034;6.984;2023-05-23T12:05:14;56135.97;;;-142.13;37.97
11712;BME280;5912;51.034;6.984;2023-05-23T12:07:40;56135.97;;;-142.13;37.99
11712;BME280;5912;51.034;6.984;2023-05-23T12:10:07;56160.03;;;-142.13;38.86
11712;BME280;5912;51.034;6.984;2023-05-23T12:12:33;56156.00;;;-142.13;39.27
11712;BME280;5912;51.034;6.984;2023-05-23T12:14:59;56144.00;;;-142.13;39.24
11712;BME280;5912;51.034;6.984;2023-05-23T12:17:25;56168.03;;;-142.13;38.64
11712;BME280;5912;51.034;6.984;2023-05-23T12:19:51;56166.03;;;-142.13;39.37
11712;BME280;5912;51.034;6.984;2023-05-23T12:22:22;56168.03;;;-142.13;38.46
11712;BME280;5912;51.034;6.984;2023-05-23T12:24:49;56194.06;;;-142.13;38.35
11712;BME280;5912;51.034;6.984;2023-05-23T12:27:17;56226.13;;;-142.13;38.98
11712;BME280;5912;51.034;6.984;2023-05-23T12:29:49;56198.06;;;-142.13;39.36
11712;BME280;5912;51.034;6.984;2023-05-23T12:32:15;56188.06;;;-142.13;39.34
11712;BME280;5912;51.034;6.984;2023-05-23T12:34:41;56194.06;;;-142.13;39.87
11712;BME280;5912;51.034;6.984;2023-05-23T12:37:11;56180.06;;;-142.13;39.85
11712;BME280;5912;51.034;6.984;2023-05-23T12:39:38;56186.06;;;-142.13;39.21
11712;BME280;5912;51.034;6.984;2023-05-23T12:42:10;56182.06;;;-142.13;39.11
11712;BME280;5912;51.034;6.984;2023-05-23T12:44:35;56212.09;;;-142.13;39.30
11712;BME280;5912;51.034;6.984;2023-05-23T12:47:02;56154.00;;;-142.13;38.67
11712;BME280;5912;51.034;6.984;2023-05-23T12:49:27;56194.06;;;-142.13;37.93
11712;BME280;5912;51.034;6.984;2023-05-23T12:51:53;56200.09;;;-142.13;37.92
11712;BME280;5912;51.034;6.984;2023-05-23T12:54:18;56176.03;;;-142.13;38.46
11712;BME280;5912;51.034;6.984;2023-05-23T12:56:44;56164.03;;;-142.13;38.12
11712;BME280;5912;51.034;6.984;2023-05-23T12:59:09;56154.00;;;-142.13;37.41
11712;BME280;5912;51.034;6.984;2023-05-23T13:01:34;56146.00;;;-142.13;37.65
11712;BME280;5912;51.034;6.984;2023-05-23T13:04:00;56188.06;;;-142.13;37.63
11712;BME280;5912;51.034;6.984;2023-05-23T13:06:26;56188.06;;;-142.13;37.53